Time;durP1;ratioP1;P1;durP2;ratioP2;P2;SDS_P1;SDS_P2;PMS_P1;PMS_P2;Temp;Humidity;BMP_temperature;BMP_pressure;BME280_temperature;BME280_humidity;BME280_pressure;Samples;Min_cycle;Max_cycle;Signal;HPM_P1;HPM_P2
2022/01/08 00:28:17;;;;;;;13.02;9.13;;;;;;;6.42;59.56;100635.84;6199744;22;100188;-78
2022/01/08 00:31:03;;;;;;;13.40;9.45;;;;;;;6.62;58.24;100636.31;6155435;22;97043;-79
2022/01/08 03:49:22;;;;;;;14.50;9.27;;;;;;;7.31;56.91;100575.16;6194599;22;98717;-77
2022/01/08 03:51:49;;;;;;;14.85;9.73;;;;;;;7.26;56.92;100569.16;6193733;22;97963;-79
2022/01/08 03:54:19;;;;;;;12.40;9.63;;;;;;;7.39;56.43;100575.84;6194075;22;97704;-78
2022/01/08 03:56:45;;;;;;;13.77;9.52;;;;;;;7.28;56.68;100562.09;6193793;22;96518;-77
2022/01/08 03:59:16;;;;;;;12.90;9.10;;;;;;;7.26;57.37;100561.25;6184077;22;96786;-79
2022/01/08 04:01:45;;;;;;;14.07;9.07;;;;;;;7.26;56.65;100569.16;6184493;22;98860;-78
2022/01/08 04:04:13;;;;;;;12.15;9.07;;;;;;;7.15;56.68;100558.06;6185462;22;98770;-78
2022/01/08 04:06:40;;;;;;;11.73;8.98;;;;;;;7.29;56.75;100566.44;6184376;22;97120;-79
2022/01/08 04:09:06;;;;;;;13.48;8.73;;;;;;;7.23;57.34;100571.84;6184593;22;97217;-78
2022/01/08 04:11:39;;;;;;;11.70;8.90;;;;;;;7.12;56.75;100571.25;6183224;22;99073;-79
2022/01/08 04:14:07;;;;;;;14.40;9.90;;;;;;;7.14;57.03;100570.31;6182993;22;97736;-79
2022/01/08 04:16:37;;;;;;;13.38;9.20;;;;;;;7.29;56.46;100571.69;6180530;22;96654;-78
2022/01/08 04:19:06;;;;;;;13.35;9.35;;;;;;;7.28;56.94;100577.00;6181656;22;97199;-79
2022/01/08 04:24:32;;;;;;;13.88;9.68;;;;;;;7.40;56.27;100574.94;6169842;22;97430;-78
2022/01/08 04:26:59;;;;;;;15.73;8.85;;;;;;;7.57;56.04;100572.72;6181119;22;96645;-77
2022/01/08 04:29:25;;;;;;;13.93;9.20;;;;;;;7.59;55.98;100578.81;6181339;22;96750;-78
2022/01/08 04:31:55;;;;;;;14.43;9.70;;;;;;;7.43;56.43;100577.47;6182216;22;98879;-78
2022/01/08 04:34:24;;;;;;;13.27;9.65;;;;;;;7.43;55.97;100581.84;6181362;22;98701;-79
2022/01/08 04:36:54;;;;;;;13.02;9.50;;;;;;;7.53;56.41;100592.13;6180393;22;96802;-78
2022/01/08 04:39:26;;;;;;;13.13;10.00;;;;;;;7.59;56.26;100584.06;6180845;22;96714;-77
2022/01/08 04:41:53;;;;;;;12.90;9.57;;;;;;;7.45;56.23;100590.59;6181677;22;98873;-79
2022/01/08 04:44:20;;;;;;;18.02;10.13;;;;;;;7.35;56.09;100583.84;6180698;22;98755;-79
2022/01/08 04:46:48;;;;;;;13.18;9.35;;;;;;;7.44;56.10;100578.34;6197011;22;96926;-78
2022/01/08 04:49:15;;;;;;;14.52;9.95;;;;;;;7.46;55.76;100587.91;6198950;22;96693;-77
2022/01/08 04:51:44;;;;;;;17.00;9.65;;;;;;;7.42;56.34;100580.13;6182139;22;101013;-78
2022/01/08 04:54:16;;;;;;;12.48;9.63;;;;;;;7.40;57.00;100584.59;6180807;22;98949;-78
2022/01/08 04:56:44;;;;;;;14.32;9.77;;;;;;;7.46;56.01;100585.28;6181605;22;96582;-80
2022/01/08 04:59:12;;;;;;;15.63;10.98;;;;;;;7.37;56.22;100588.13;6181974;22;96789;-78
2022/01/08 05:01:41;;;;;;;13.32;10.48;;;;;;;7.45;56.07;100587.94;6181664;22;98672;-79
2022/01/08 05:04:07;;;;;;;12.95;9.23;;;;;;;7.43;56.23;100592.38;6179782;22;98801;-78
2022/01/08 05:06:35;;;;;;;12.52;9.45;;;;;;;7.44;56.32;100589.72;6179634;22;97279;-79
2022/01/08 05:09:04;;;;;;;16.15;10.13;;;;;;;7.26;56.50;100598.06;6182290;22;97155;-79
2022/01/08 05:11:33;;;;;;;14.32;10.13;;;;;;;7.40;56.23;100597.72;6181978;22;98736;-78
2022/01/08 05:22:49;;;;;;;15.85;10.80;;;;;;;7.29;56.52;100590.09;6185081;22;99923;-75
2022/01/08 05:29:43;;;;;;;;;;;;;;;;;;;;;
2022/01/08 05:32:21;;;;;;;15.52;9.90;;;;;;;7.35;56.46;100594.34;6113110;22;117218;-80
2022/01/08 05:35:00;;;;;;;;;;;;;;;;;;;;;
2022/01/08 05:37:37;;;;;;;;;;;;;;;;;;;;;
2022/01/08 05:40:15;;;;;;;14.75;10.38;;;;;;;7.15;56.57;100587.78;6168432;22;118266;-78
2022/01/08 05:42:44;;;;;;;14.23;10.18;;;;;;;7.30;56.12;100596.22;6180427;22;97446;-78
2022/01/08 05:45:17;;;;;;;14.15;10.50;;;;;;;7.46;55.89;100598.44;6178139;22;98897;-79
2022/01/08 05:47:54;;;;;;;15.20;10.52;;;;;;;7.44;55.86;100602.84;6181139;22;99376;-78
2022/01/08 05:50:20;;;;;;;15.52;10.18;;;;;;;7.40;55.77;100608.25;6181346;22;97205;-81
2022/01/08 05:52:49;;;;;;;14.48;9.68;;;;;;;7.37;55.96;100613.56;6180664;22;96801;-78
2022/01/08 05:55:17;;;;;;;15.10;10.80;;;;;;;7.48;55.85;100612.38;6181339;22;99193;-77
2022/01/08 05:57:54;;;;;;;;;;;;;;;;;;;;;
2022/01/08 06:00:21;;;;;;;17.52;11.02;;;;;;;7.41;56.21;100623.13;6179531;22;117296;-78
2022/01/08 06:02:48;;;;;;;16.25;10.50;;;;;;;7.52;56.43;100616.69;6195193;22;96606;-78
2022/01/08 06:05:15;;;;;;;16.27;10.40;;;;;;;7.53;55.89;100612.28;6204277;22;97930;-78
2022/01/08 06:07:43;;;;;;;14.35;9.60;;;;;;;7.58;56.32;100606.00;6205738;22;97674;-77
2022/01/08 06:10:41;;;;;;;15.43;10.63;;;;;;;7.52;55.66;100608.78;6187192;22;96582;-78
2022/01/08 06:13:29;;;;;;;;;;;;;;;7.68;55.95;100611.03;6058379;23;97395;-78
2022/01/08 06:16:35;;;;;;;;;;;;;;;;;;;;;
2022/01/08 06:31:48;;;;;;;15.27;10.10;;;;;;;7.63;55.61;100621.66;5915067;23;101291;-78
2022/01/08 06:34:40;;;;;;;;;;;;;;;;;;;;;
2022/01/08 06:37:50;;;;;;;18.38;10.43;;;;;;;7.71;55.25;100622.34;6012483;22;117309;-78
2022/01/08 06:43:36;;;;;;;15.15;10.50;;;;;;;7.71;55.71;100629.38;6181182;22;100730;-79
2022/01/08 06:46:40;;;;;;;;;;;;;;;;;;;;;
2022/01/08 06:59:20;;;;;;;14.38;9.85;;;;;;;7.94;55.08;100658.59;6039415;22;97507;-77
2022/01/08 07:02:05;;;;;;;;;;;;;;;7.77;54.88;100656.38;6197181;22;96620;-77
2022/01/08 07:05:25;;;;;;;;;;;;;;;;;;;;;
2022/01/08 07:08:43;;;;;;;;;;;;;;;;;;;;;
2022/01/08 07:11:10;;;;;;;;;;;;;;;7.73;55.08;100659.13;6168293;22;120070;-79
2022/01/08 07:13:36;;;;;;;24.73;11.25;;;;;;;7.71;55.72;100661.78;6183159;22;97214;-79
2022/01/08 07:16:07;;;;;;;17.15;11.48;;;;;;;7.78;55.01;100659.88;6180904;22;98148;-77
2022/01/08 07:18:41;;;;;;;15.23;10.57;;;;;;;7.84;55.14;100662.34;6181533;22;98005;-77
2022/01/08 07:21:11;;;;;;;14.98;10.35;;;;;;;7.97;55.11;100664.63;6182403;22;97025;-79
2022/01/08 07:23:55;;;;;;;;;;;;;;;;;;;;;
2022/01/08 07:26:40;;;;;;;20.88;10.52;;;;;;;7.78;55.14;100659.88;6170261;22;128301;-79
2022/01/08 07:29:15;;;;;;;17.73;11.18;;;;;;;7.74;54.96;100651.22;6183263;22;98774;-79
2022/01/08 07:31:48;;;;;;;14.43;9.88;;;;;;;7.67;55.06;100648.75;6182690;22;97215;-79
2022/01/08 07:34:14;;;;;;;14.45;10.38;;;;;;;7.72;55.13;100654.75;6184599;22;97075;-79
2022/01/08 07:36:51;;;;;;;;;;;;;;;;;;;;;
2022/01/08 07:39:20;;;;;;;16.00;10.32;;;;;;;7.65;54.61;100651.44;6179075;22;128483;-78
2022/01/08 07:41:48;;;;;;;18.77;10.38;;;;;;;7.94;54.43;100661.22;6184499;22;96781;-79
2022/01/08 07:44:16;;;;;;;16.63;10.02;;;;;;;8.01;53.76;100660.13;6184916;22;97195;-77
2022/01/08 07:47:20;;;;;;;;;;;;;;;;;;;;;
2022/01/08 07:50:21;;;;;;;;;;;;;;;;;;;;;
2022/01/08 07:53:33;;;;;;;;;;;;;;;;;;;;;
2022/01/08 07:56:35;;;;;;;;;;;;;;;;;;;;;
2022/01/08 08:02:56;;;;;;;;;;;;;;;;;;;;;
2022/01/08 08:06:08;;;;;;;17.23;9.70;;;;;;;8.22;53.28;100670.09;6101464;23;119716;-78
2022/01/08 08:09:39;;;;;;;;;;;;;;;;;;;;;
2022/01/08 08:12:14;;;;;;;16.05;10.30;;;;;;;7.98;53.88;100673.38;6009039;22;127122;-79
2022/01/08 08:15:17;;;;;;;21.20;10.50;;;;;;;8.08;53.89;100677.47;6181947;22;98799;-80
2022/01/08 08:18:15;;;;;;;19.92;10.32;;;;;;;8.34;53.13;100675.06;6001549;23;97293;-78
2022/01/08 08:20:42;;;;;;;17.10;10.25;;;;;;;8.20;53.17;100692.13;5926778;23;97592;-78
2022/01/08 08:24:13;;;;;;;;;;;;;;;;;;;;;
2022/01/08 08:31:18;;;;;;;;;;;;;;;;;;;;;
2022/01/08 08:46:47;;;;;;;15.30;10.40;;;;;;;7.96;53.92;100656.75;5854499;23;96945;-78
2022/01/08 08:50:11;;;;;;;;;;;;;;;;;;;;;
2022/01/08 09:06:45;;;;;;;;;;;;;;;;;;;;;
2022/01/08 09:09:57;;;;;;;;;;;;;;;;;;;;;
2022/01/08 09:15:44;;;;;;;16.77;10.68;;;;;;;8.04;53.84;100639.00;6038589;23;100713;-80
2022/01/08 09:18:16;;;;;;;18.77;11.05;;;;;;;7.94;54.16;100655.97;6088274;23;97772;-79
2022/01/08 09:20:43;;;;;;;18.63;10.63;;;;;;;8.04;53.96;100656.56;6116513;22;96846;-78
2022/01/08 09:23:20;;;;;;;18.38;11.45;;;;;;;7.83;54.29;100660.59;6181336;22;96841;-79
2022/01/08 09:26:04;;;;;;;17.55;10.85;;;;;;;7.92;54.35;100665.66;6181821;22;99096;-77
2022/01/08 09:28:34;;;;;;;15.95;10.32;;;;;;;7.95;54.63;100666.41;6180833;22;101779;-78
2022/01/08 09:31:36;;;;;;;19.70;11.02;;;;;;;7.80;54.48;100666.84;6181476;22;97081;-79
2022/01/08 09:34:10;;;;;;;17.92;11.25;;;;;;;7.84;54.50;100665.84;6182848;22;96624;-83
2022/01/08 09:37:04;;;;;;;16.48;10.98;;;;;;;7.94;54.38;100677.84;6181299;22;98871;-79
2022/01/08 09:39:38;;;;;;;16.10;11.20;;;;;;;7.99;54.83;100672.47;6181019;22;97657;-78
2022/01/08 09:42:09;;;;;;;14.65;10.18;;;;;;;8.14;54.45;100668.59;6180449;22;97298;-77
2022/01/08 09:44:58;;;;;;;;;;;;;;;;;;;;;
2022/01/08 11:00:22;;;;;;;;;;;;;;;9.09;50.49;100615.75;5845936;23;97030;-78
2022/01/08 11:15:23;;;;;;;13.75;9.57;;;;;;;9.22;50.03;100618.00;6016338;23;98325;-77
2022/01/08 11:17:56;;;;;;;16.88;9.98;;;;;;;9.01;50.56;100625.66;6059924;22;98735;-77
2022/01/08 11:20:25;;;;;;;14.95;9.98;;;;;;;8.99;50.13;100622.22;6157997;22;97236;-77
2022/01/08 11:22:53;;;;;;;19.45;10.10;;;;;;;8.74;50.90;100626.50;6165057;22;96816;-77
2022/01/08 11:25:23;;;;;;;17.85;9.85;;;;;;;8.98;50.43;100631.06;6162754;22;97738;-78
2022/01/08 11:28:56;;;;;;;;;;;;;;;;;;;;;
2022/01/08 11:35:41;;;;;;;15.23;9.27;;;;;;;8.13;50.90;100640.53;5994919;23;97004;-80
2022/01/08 11:38:12;;;;;;;15.52;8.93;;;;;;;8.54;49.97;100627.09;6056482;23;98899;-77
2022/01/08 11:40:40;;;;;;;14.38;8.32;;;;;;;8.13;50.03;100624.75;6150276;22;98762;-78
2022/01/08 11:43:09;;;;;;;15.45;8.70;;;;;;;8.71;49.07;100619.56;6150772;22;97189;-76
2022/01/08 11:45:37;;;;;;;14.65;8.93;;;;;;;8.51;49.90;100619.28;6152392;22;96898;-76
2022/01/08 11:48:06;;;;;;;15.88;8.45;;;;;;;8.51;48.90;100613.16;6151007;22;99446;-76
2022/01/08 11:50:34;;;;;;;15.40;8.30;;;;;;;8.79;48.75;100619.34;6149367;22;98968;-78
2022/01/08 11:53:17;;;;;;;15.02;8.38;;;;;;;8.85;48.43;100613.03;6163220;22;96809;-76
2022/01/08 11:55:45;;;;;;;16.48;7.70;;;;;;;9.04;47.16;100619.44;6167203;22;97762;-76
2022/01/08 11:58:17;;;;;;;13.85;7.63;;;;;;;8.69;48.21;100625.78;6162623;22;98958;-77
2022/01/08 12:00:50;;;;;;;13.60;7.50;;;;;;;8.06;49.80;100621.41;6152998;22;96707;-76
2022/01/08 12:03:21;;;;;;;11.57;7.35;;;;;;;8.49;49.11;100621.09;6151287;22;96801;-78
2022/01/08 12:05:47;;;;;;;13.63;6.47;;;;;;;8.77;48.19;100615.88;6151877;22;96753;-76
2022/01/08 12:08:17;;;;;;;14.68;7.65;;;;;;;7.73;49.87;100624.94;6150634;22;102014;-77
2022/01/08 12:10:56;;;;;;;12.57;7.10;;;;;;;8.56;49.01;100629.69;6150173;22;98792;-78
2022/01/08 12:13:42;;;;;;;14.15;7.38;;;;;;;8.58;47.92;100614.72;6150557;22;96932;-78
2022/01/08 12:16:31;;;;;;;15.70;8.30;;;;;;;8.45;48.36;100610.72;6151864;22;97152;-77
2022/01/08 12:18:57;;;;;;;20.70;8.65;;;;;;;8.67;48.40;100607.38;6149600;22;97915;-78
2022/01/08 12:21:31;;;;;;;13.60;6.72;;;;;;;8.79;47.72;100614.09;6151533;22;98781;-77
2022/01/08 12:23:59;;;;;;;12.85;8.27;;;;;;;8.82;47.73;100613.97;6153416;22;97217;-76
2022/01/08 12:26:39;;;;;;;15.30;8.27;;;;;;;8.98;47.54;100604.69;6148942;22;96763;-80
2022/01/08 12:29:07;;;;;;;17.70;8.40;;;;;;;8.90;47.21;100604.06;6145353;22;100861;-78
2022/01/08 12:31:41;;;;;;;16.10;7.60;;;;;;;8.79;47.50;100591.19;6151366;22;99165;-79
2022/01/08 12:37:19;;;;;;;12.27;7.15;;;;;;;8.74;47.41;100579.09;6148743;22;97448;-78
2022/01/08 12:39:57;;;;;;;14.40;7.25;;;;;;;9.13;47.02;100575.19;6148586;22;101702;-78
2022/01/08 12:42:47;;;;;;;12.68;7.28;;;;;;;9.14;46.62;100579.56;6150891;22;97578;-77
2022/01/08 12:45:19;;;;;;;16.67;8.23;;;;;;;9.25;46.70;100575.72;6122323;22;97250;-77
2022/01/08 12:47:52;;;;;;;14.77;7.95;;;;;;;9.18;47.18;100582.97;6150807;22;96636;-77
2022/01/08 12:50:28;;;;;;;14.43;7.55;;;;;;;9.03;46.76;100573.78;6150816;22;99440;-77
2022/01/08 12:53:28;;;;;;;17.17;7.78;;;;;;;9.07;46.41;100574.53;6171394;22;98684;-78
2022/01/08 12:56:17;;;;;;;10.80;7.60;;;;;;;9.08;46.78;100569.22;6050315;23;96923;-77
2022/01/08 12:58:49;;;;;;;16.60;8.05;;;;;;;9.18;47.00;100573.31;6151016;22;97468;-76
2022/01/08 13:01:17;;;;;;;13.85;7.90;;;;;;;9.08;46.59;100569.22;6154760;22;98774;-78
2022/01/08 13:03:46;;;;;;;17.00;8.40;;;;;;;9.23;47.10;100567.88;6150128;22;97690;-77
2022/01/08 13:06:27;;;;;;;18.63;7.60;;;;;;;9.41;46.17;100569.03;6150361;22;96658;-78
2022/01/08 13:08:55;;;;;;;15.05;7.65;;;;;;;9.38;46.57;100574.41;6149407;22;96784;-78
2022/01/08 13:11:25;;;;;;;14.13;7.43;;;;;;;9.45;46.37;100570.66;6150614;22;100546;-77
2022/01/08 13:13:55;;;;;;;14.10;6.75;;;;;;;9.61;45.96;100563.94;6151980;22;98617;-77
2022/01/08 13:16:25;;;;;;;22.60;8.98;;;;;;;9.80;45.64;100562.38;6152490;22;96593;-76
2022/01/08 13:18:54;;;;;;;12.52;7.38;;;;;;;9.69;46.11;100561.91;6151197;22;96809;-77
2022/01/08 13:21:21;;;;;;;11.30;7.20;;;;;;;9.52;46.47;100569.50;6151198;22;99097;-76
2022/01/08 13:23:49;;;;;;;16.98;6.90;;;;;;;9.40;46.71;100568.16;6151057;22;98815;-77
2022/01/08 13:26:16;;;;;;;14.43;7.40;;;;;;;9.46;46.09;100560.03;6151320;22;96720;-77
2022/01/08 13:28:49;;;;;;;14.38;8.20;;;;;;;9.21;46.72;100553.88;6152268;22;96532;-77
2022/01/08 13:31:16;;;;;;;10.38;6.80;;;;;;;8.99;47.13;100558.97;6150971;22;100641;-76
2022/01/08 13:33:54;;;;;;;13.93;7.45;;;;;;;9.06;47.34;100549.94;6151205;22;99119;-78
2022/01/08 13:36:20;;;;;;;14.07;7.05;;;;;;;8.88;47.72;100549.69;6151550;22;96578;-77
2022/01/08 13:38:47;;;;;;;15.55;7.50;;;;;;;9.01;47.48;100556.28;6151660;22;96672;-78
2022/01/08 13:41:16;;;;;;;15.48;7.38;;;;;;;9.09;47.23;100549.00;6151086;22;99382;-77
2022/01/08 13:43:58;;;;;;;12.68;7.72;;;;;;;9.12;47.13;100543.63;6151354;22;98846;-77
2022/01/08 13:46:26;;;;;;;11.95;7.40;;;;;;;9.09;47.59;100544.59;6151394;22;96628;-77
2022/01/08 13:48:52;;;;;;;11.30;6.75;;;;;;;9.02;47.65;100547.47;6150915;22;96719;-77
2022/01/08 13:51:21;;;;;;;13.43;7.35;;;;;;;8.88;48.17;100542.63;6165401;22;98948;-76
2022/01/08 13:53:59;;;;;;;13.70;6.90;;;;;;;9.09;47.69;100539.31;6167792;22;98800;-77
2022/01/08 13:56:26;;;;;;;14.32;6.90;;;;;;;9.22;47.59;100538.91;6167557;22;97107;-77
2022/01/08 13:59:08;;;;;;;13.27;7.18;;;;;;;9.13;47.75;100529.53;6155231;22;96832;-76
2022/01/08 14:01:42;;;;;;;17.38;7.43;;;;;;;9.13;47.56;100524.25;6151580;22;98811;-76
2022/01/08 14:04:10;;;;;;;15.05;7.32;;;;;;;9.00;47.91;100520.28;6151709;22;98889;-76
2022/01/08 14:06:41;;;;;;;13.80;7.38;;;;;;;9.23;47.90;100522.19;6151498;22;97026;-77
2022/01/08 14:09:09;;;;;;;16.02;7.22;;;;;;;9.32;47.67;100520.09;6151842;22;97179;-77
2022/01/08 14:11:36;;;;;;;13.38;7.70;;;;;;;9.29;47.53;100524.63;6151961;22;98807;-76
2022/01/08 14:14:12;;;;;;;11.95;7.18;;;;;;;9.01;48.02;100517.63;6153100;22;98822;-77
2022/01/08 14:16:41;;;;;;;17.13;7.50;;;;;;;9.03;47.81;100520.22;6152707;22;96651;-77
2022/01/08 14:19:09;;;;;;;16.52;7.88;;;;;;;9.18;47.81;100512.66;6151880;22;96825;-75
2022/01/08 14:21:36;;;;;;;16.08;7.95;;;;;;;9.14;48.10;100516.28;6151745;22;97671;-77
2022/01/08 14:24:17;;;;;;;14.35;7.50;;;;;;;9.10;48.34;100506.78;6153130;22;99064;-77
2022/01/08 14:26:59;;;;;;;14.38;7.57;;;;;;;9.06;48.61;100514.81;6160329;22;96589;-77
2022/01/08 14:29:27;;;;;;;14.13;6.80;;;;;;;9.16;48.46;100522.38;6174761;22;96483;-76
2022/01/08 14:31:55;;;;;;;16.77;7.90;;;;;;;9.18;48.35;100517.94;6165085;22;97852;-77
2022/01/08 14:34:22;;;;;;;16.67;7.63;;;;;;;9.10;48.60;100522.59;6151545;22;98149;-77
2022/01/08 14:36:52;;;;;;;12.32;7.47;;;;;;;9.01;48.80;100509.72;6151370;22;97002;-76
2022/01/08 14:39:39;;;;;;;21.38;7.88;;;;;;;9.07;48.45;100509.50;6149652;22;96783;-76
2022/01/08 14:42:07;;;;;;;15.73;7.95;;;;;;;8.99;48.83;100508.06;6150734;22;99111;-77
2022/01/08 14:44:36;;;;;;;14.45;8.38;;;;;;;8.79;49.31;100506.06;6149190;22;98965;-76
2022/01/08 14:47:03;;;;;;;16.55;8.27;;;;;;;8.73;49.68;100508.84;6150765;22;97260;-76
2022/01/08 14:49:30;;;;;;;15.88;8.23;;;;;;;8.74;50.52;100500.91;6150495;22;96787;-77
2022/01/08 14:51:56;;;;;;;16.52;8.52;;;;;;;8.76;49.95;100503.50;6148195;22;99210;-76
2022/01/08 14:54:25;;;;;;;16.75;8.95;;;;;;;8.80;50.43;100506.00;6149395;22;99051;-75
2022/01/08 14:56:52;;;;;;;20.08;8.80;;;;;;;8.96;49.94;100501.09;6150715;22;96603;-76
2022/01/08 14:59:18;;;;;;;15.02;8.63;;;;;;;8.89;50.29;100501.34;6148940;22;96818;-77
2022/01/08 15:01:46;;;;;;;17.92;9.10;;;;;;;8.84;49.88;100501.50;6144760;22;99291;-77
2022/01/08 15:04:13;;;;;;;17.63;8.57;;;;;;;8.90;49.54;100500.44;6145508;22;99311;-78
2022/01/08 15:06:39;;;;;;;14.77;7.88;;;;;;;8.91;49.39;100496.88;6145776;22;97229;-77
2022/01/08 15:09:05;;;;;;;13.60;8.50;;;;;;;8.90;49.51;100503.06;6152625;22;97057;-77
2022/01/08 15:11:32;;;;;;;15.80;8.00;;;;;;;9.00;48.59;100502.72;6156200;22;98419;-76
2022/01/08 15:13:58;;;;;;;16.70;8.15;;;;;;;8.93;49.13;100495.03;6160851;22;97772;-77
2022/01/08 15:16:24;;;;;;;12.38;7.30;;;;;;;8.56;49.79;100503.28;6162091;22;96608;-76
2022/01/08 15:18:53;;;;;;;14.10;7.70;;;;;;;8.66;49.28;100502.09;6155914;22;97265;-76
2022/01/08 15:21:19;;;;;;;11.18;7.03;;;;;;;8.75;48.64;100501.78;6153354;22;100227;-75
2022/01/08 15:23:46;;;;;;;12.45;6.97;;;;;;;8.59;49.74;100500.56;6154158;22;98882;-75
2022/01/08 15:26:13;;;;;;;13.20;6.75;;;;;;;8.84;48.74;100500.63;6155174;22;96537;-76
2022/01/08 15:28:39;;;;;;;19.33;7.25;;;;;;;8.92;49.00;100506.53;6155322;22;96696;-76
2022/01/08 15:31:06;;;;;;;13.88;7.05;;;;;;;8.72;49.15;100507.16;6151205;22;98871;-76
2022/01/08 15:33:32;;;;;;;16.95;7.10;;;;;;;8.66;49.11;100502.09;6154208;22;98874;-77
2022/01/08 15:36:00;;;;;;;11.77;6.70;;;;;;;8.70;49.23;100503.69;6153271;22;97177;-76
2022/01/08 15:38:26;;;;;;;13.52;7.50;;;;;;;8.73;49.10;100499.19;6154762;22;96772;-76
2022/01/08 15:40:53;;;;;;;14.55;6.88;;;;;;;8.90;48.76;100500.44;6153212;22;99303;-78
2022/01/08 15:43:19;;;;;;;13.85;6.97;;;;;;;8.65;49.11;100492.47;6159343;22;98616;-74
2022/01/08 15:45:46;;;;;;;14.15;7.35;;;;;;;8.70;48.99;100490.53;6163055;22;96678;-77
2022/01/08 15:48:13;;;;;;;12.07;6.55;;;;;;;8.65;49.10;100490.69;6158260;22;96774;-75
2022/01/08 15:50:40;;;;;;;17.35;7.55;;;;;;;8.74;49.06;100492.16;6159458;22;98768;-76
2022/01/08 15:53:08;;;;;;;14.80;7.20;;;;;;;8.84;48.95;100490.09;6166726;22;99283;-77
2022/01/08 15:55:35;;;;;;;14.85;6.15;;;;;;;8.66;48.97;100486.28;6165507;22;96576;-77
2022/01/08 15:58:01;;;;;;;9.27;6.45;;;;;;;8.80;48.74;100486.69;6155217;22;96803;-77
2022/01/08 16:00:27;;;;;;;12.32;5.70;;;;;;;8.64;48.65;100485.47;6154097;22;97715;-77
2022/01/08 16:02:54;;;;;;;15.90;5.90;;;;;;;8.49;49.24;100478.03;6152834;22;98009;-77
2022/01/08 16:05:22;;;;;;;14.25;5.88;;;;;;;8.49;48.70;100478.03;6152857;22;97551;-76
2022/01/08 16:07:49;;;;;;;14.75;5.95;;;;;;;8.71;48.38;100479.09;6154121;22;97295;-76
2022/01/08 16:10:17;;;;;;;11.68;5.90;;;;;;;8.86;48.28;100481.22;6151539;22;97826;-78
2022/01/08 16:12:44;;;;;;;13.48;6.00;;;;;;;8.94;47.83;100484.47;6152223;22;98738;-78
2022/01/08 16:15:11;;;;;;;14.82;5.72;;;;;;;9.02;47.88;100479.81;6154383;22;97259;-77
2022/01/08 16:17:38;;;;;;;11.07;6.45;;;;;;;9.18;47.68;100481.03;6153235;22;96782;-76
2022/01/08 16:20:06;;;;;;;11.88;5.85;;;;;;;9.11;47.82;100468.97;6152896;22;99082;-78
2022/01/08 16:22:33;;;;;;;14.90;6.55;;;;;;;8.91;47.82;100476.69;6155765;22;98902;-77
2022/01/08 16:25:00;;;;;;;13.80;6.10;;;;;;;9.06;47.56;100473.50;6153597;22;96643;-77
2022/01/08 16:27:28;;;;;;;16.90;6.32;;;;;;;9.02;47.64;100469.25;6153695;22;96864;-77
2022/01/08 16:29:54;;;;;;;19.73;6.85;;;;;;;8.78;48.22;100467.44;6151910;22;100259;-77
2022/01/08 16:32:21;;;;;;;18.75;7.15;;;;;;;8.69;48.38;100467.72;6152888;22;98788;-77
2022/01/08 16:34:48;;;;;;;13.13;6.68;;;;;;;8.79;48.38;100461.28;6153904;22;96600;-77
2022/01/08 16:37:15;;;;;;;11.43;7.15;;;;;;;8.81;48.06;100462.06;6164735;22;96920;-76
2022/01/08 16:39:42;;;;;;;12.35;6.75;;;;;;;8.61;48.66;100452.16;6163339;22;97692;-77
2022/01/08 16:42:08;;;;;;;13.05;6.93;;;;;;;8.78;48.64;100454.28;6160810;22;98010;-77
2022/01/08 16:44:36;;;;;;;13.77;7.40;;;;;;;8.80;48.57;100450.66;6156951;22;96634;-78
2022/01/08 16:47:03;;;;;;;15.63;6.80;;;;;;;8.97;48.21;100446.63;6156463;22;96563;-77
2022/01/08 16:49:30;;;;;;;13.38;6.65;;;;;;;8.92;47.96;100435.38;6159918;22;99099;-79
2022/01/08 19:21:45;;;;;;;13.45;8.40;;;;;;;6.75;53.98;100188.72;6142520;22;100394;-75
2022/01/08 19:24:12;;;;;;;18.40;8.75;;;;;;;6.97;53.54;100188.94;6180899;22;96631;-76
2022/01/08 19:26:42;;;;;;;19.67;9.57;;;;;;;6.84;54.19;100173.59;6182708;22;97171;-75
2022/01/08 19:29:09;;;;;;;17.17;9.15;;;;;;;6.71;54.49;100168.69;6187445;22;99000;-75
2022/01/08 19:31:37;;;;;;;16.67;9.55;;;;;;;6.88;54.12;100167.34;6187599;22;98884;-73
2022/01/08 19:40:01;;;;;;;19.70;9.77;;;;;;;6.58;53.81;100148.09;6178818;22;97049;-75
2022/01/08 19:42:28;;;;;;;15.45;9.00;;;;;;;6.97;53.05;100156.56;6181765;22;99241;-77
2022/01/08 19:44:54;;;;;;;17.27;8.18;;;;;;;6.64;53.29;100154.03;6182415;22;96544;-76
2022/01/08 19:47:21;;;;;;;20.98;9.05;;;;;;;6.86;53.62;100154.28;6180506;22;96979;-76
2022/01/08 19:49:49;;;;;;;22.80;8.07;;;;;;;6.46;53.56;100144.06;6182894;22;98956;-74
2022/01/08 19:52:16;;;;;;;15.27;8.50;;;;;;;6.41;53.49;100130.22;6197938;22;97703;-73
2022/01/08 19:54:43;;;;;;;15.77;8.60;;;;;;;6.64;53.98;100135.66;6193480;22;97446;-75
2022/01/08 19:57:12;;;;;;;22.98;8.60;;;;;;;6.74;53.67;100139.75;6192248;22;97015;-72
2022/01/08 19:59:40;;;;;;;16.83;7.78;;;;;;;6.73;53.28;100134.53;6192827;22;98882;-72
2022/01/08 20:02:06;;;;;;;20.40;8.85;;;;;;;6.63;53.25;100126.03;6193362;22;98915;-72
2022/01/08 20:04:33;;;;;;;14.52;7.80;;;;;;;6.21;54.04;100119.41;6189321;22;96589;-73
2022/01/08 20:06:59;;;;;;;13.70;7.85;;;;;;;6.32;54.27;100114.72;6186082;22;97002;-73
2022/01/08 20:09:27;;;;;;;24.40;8.45;;;;;;;6.69;53.70;100110.16;6184549;22;98882;-71
2022/01/08 20:11:53;;;;;;;14.45;8.07;;;;;;;6.62;52.48;100102.50;6188463;22;98021;-75
2022/01/08 20:14:21;;;;;;;14.38;8.82;;;;;;;6.48;53.75;100095.00;6187802;22;97021;-73
2022/01/08 20:16:47;;;;;;;15.20;8.43;;;;;;;6.39;53.89;100090.88;6193366;22;96746;-74
2022/01/08 20:19:14;;;;;;;17.98;8.82;;;;;;;6.17;54.39;100081.88;6196447;22;97823;-72
2022/01/08 20:21:40;;;;;;;21.88;9.32;;;;;;;6.47;53.88;100072.28;6198784;22;99461;-74
2022/01/08 20:24:06;;;;;;;22.40;9.07;;;;;;;6.60;53.42;100070.16;6197038;22;96566;-73
2022/01/08 20:26:33;;;;;;;16.33;8.45;;;;;;;6.35;53.08;100075.28;6198451;22;96760;-74
2022/01/08 20:28:59;;;;;;;17.73;9.23;;;;;;;6.19;53.90;100055.63;6193541;22;99170;-73
2022/01/08 20:31:27;;;;;;;20.52;9.30;;;;;;;6.42;54.05;100053.22;6196894;22;99341;-73
2022/01/08 20:33:54;;;;;;;17.35;9.23;;;;;;;6.14;54.28;100047.88;6197274;22;96423;-73
2022/01/08 20:36:20;;;;;;;16.90;8.95;;;;;;;6.37;53.94;100041.97;6197398;22;97573;-75
2022/01/08 20:38:47;;;;;;;23.92;9.88;;;;;;;6.22;53.85;100034.56;6192311;22;97785;-73
2022/01/08 20:41:13;;;;;;;17.70;8.93;;;;;;;6.06;54.13;100022.78;6181102;22;98851;-72
2022/01/08 20:43:40;;;;;;;18.60;8.93;;;;;;;6.20;53.69;100023.25;6181219;22;96646;-74
2022/01/08 20:46:06;;;;;;;18.40;9.93;;;;;;;6.29;53.67;100015.13;6179432;22;97522;-73
2022/01/08 20:48:34;;;;;;;19.17;9.10;;;;;;;6.38;52.46;100001.69;6180357;22;99035;-73
2022/01/08 20:51:00;;;;;;;22.10;9.02;;;;;;;6.26;52.57;99999.44;6179422;22;99067;-73
2022/01/08 20:53:27;;;;;;;17.20;9.25;;;;;;;6.09;52.73;100005.19;6178879;22;96988;-74
2022/01/08 20:55:53;;;;;;;21.17;9.30;;;;;;;6.33;52.25;99995.72;6179676;22;96608;-73
2022/01/08 20:58:20;;;;;;;16.75;8.60;;;;;;;6.49;52.43;99986.50;6179409;22;99025;-76
2022/01/08 21:00:46;;;;;;;15.98;8.65;;;;;;;6.36;51.36;99985.16;6179451;22;99206;-72
2022/01/08 21:03:12;;;;;;;15.73;8.23;;;;;;;6.19;52.39;99979.53;6179786;22;97244;-73
2022/01/08 21:05:40;;;;;;;16.00;8.45;;;;;;;6.33;52.18;99974.75;6178182;22;97099;-72
2022/01/08 21:08:07;;;;;;;15.82;8.63;;;;;;;6.35;52.08;99968.56;6179578;22;99336;-75
2022/01/08 21:10:34;;;;;;;19.23;8.38;;;;;;;5.99;53.02;99957.38;6178911;22;98942;-73
2022/01/08 21:13:00;;;;;;;20.20;9.02;;;;;;;6.05;52.44;99952.84;6178647;22;97194;-74
2022/01/08 21:15:26;;;;;;;16.13;9.05;;;;;;;6.08;52.19;99944.91;6179437;22;96788;-72
2022/01/08 21:17:53;;;;;;;15.77;8.18;;;;;;;6.09;52.45;99936.16;6179374;22;99198;-73
2022/01/08 21:20:19;;;;;;;15.75;8.73;;;;;;;5.88;52.72;99948.13;6177984;22;99000;-73
2022/01/08 21:22:48;;;;;;;16.27;8.80;;;;;;;6.20;52.04;99931.41;6177131;22;96660;-73
2022/01/08 21:25:15;;;;;;;15.05;8.38;;;;;;;6.24;51.51;99935.66;6179454;22;97258;-75
2022/01/08 21:27:42;;;;;;;17.70;8.55;;;;;;;6.13;51.33;99940.38;6178386;22;98915;-72
2022/01/08 21:30:11;;;;;;;17.73;8.10;;;;;;;6.35;51.81;99933.59;6179818;22;98947;-73
2022/01/08 21:32:39;;;;;;;15.23;9.05;;;;;;;5.95;51.62;99931.31;6179890;22;96962;-72
2022/01/08 21:35:08;;;;;;;17.88;8.30;;;;;;;5.80;52.14;99923.84;6179760;22;97186;-74